sensor_id;sensor_type;location;lat;lon;timestamp;pressure;altitude;pressure_sealevel;temperature;humidity
76478;BME280;65309;49.790;18.972;2023-03-01T00:02:44;97989.34;;;-5.12;87.29
76478;BME280;65309;49.790;18.972;2023-03-01T00:07:46;97994.16;;;-5.33;87.19
76478;BME280;65309;49.790;18.972;2023-03-01T00:12:48;97992.66;;;-5.46;87.47
76478;BME280;65309;49.790;18.972;2023-03-01T00:17:52;97982.69;;;-5.45;88.15
76478;BME280;65309;49.790;18.972;2023-03-01T00:22:54;97981.22;;;-5.43;88.21
76478;BME280;65309;49.790;18.972;2023-03-01T00:27:56;97978.25;;;-5.38;87.77
76478;BME280;65309;49.790;18.972;2023-03-01T00:32:59;97972.34;;;-5.43;88.62
76478;BME280;65309;49.790;18.972;2023-03-01T00:38:02;97964.84;;;-5.34;88.67
76478;BME280;65309;49.790;18.972;2023-03-01T00:43:05;97961.56;;;-5.28;88.74
76478;BME280;65309;49.790;18.972;2023-03-01T00:48:09;97955.31;;;-5.16;89.10
76478;BME280;65309;49.790;18.972;2023-03-01T00:53:11;97952.53;;;-5.20;87.63
76478;BME280;65309;49.790;18.972;2023-03-01T00:58:13;97949.75;;;-5.23;87.44
76478;BME280;65309;49.790;18.972;2023-03-01T01:03:16;97955.84;;;-5.26;88.11
76478;BME280;65309;49.790;18.972;2023-03-01T01:08:18;97954.78;;;-5.22;87.35
76478;BME280;65309;49.790;18.972;2023-03-01T01:13:20;97955.47;;;-5.25;88.25
76478;BME280;65309;49.790;18.972;2023-03-01T01:18:24;97949.66;;;-5.27;88.33
76478;BME280;65309;49.790;18.972;2023-03-01T01:23:26;97949.47;;;-5.34;87.74
76478;BME280;65309;49.790;18.972;2023-03-01T01:28:28;97948.16;;;-5.40;88.50
76478;BME280;65309;49.790;18.972;2023-03-01T01:33:32;97950.88;;;-5.40;88.12
76478;BME280;65309;49.790;18.972;2023-03-01T01:38:34;97954.06;;;-5.50;88.14
76478;BME280;65309;49.790;18.972;2023-03-01T01:43:39;97946.44;;;-5.48;87.63
76478;BME280;65309;49.790;18.972;2023-03-01T01:48:48;97938.69;;;-5.49;88.24
76478;BME280;65309;49.790;18.972;2023-03-01T01:53:56;97938.84;;;-5.42;88.52
76478;BME280;65309;49.790;18.972;2023-03-01T01:59:01;97934.59;;;-5.43;88.55
76478;BME280;65309;49.790;18.972;2023-03-01T02:04:05;97926.00;;;-5.33;87.92
76478;BME280;65309;49.790;18.972;2023-03-01T02:09:13;97912.34;;;-5.25;87.70
76478;BME280;65309;49.790;18.972;2023-03-01T02:14:16;97894.59;;;-5.26;87.22
76478;BME280;65309;49.790;18.972;2023-03-01T02:19:29;97896.09;;;-5.28;87.33
76478;BME280;65309;49.790;18.972;2023-03-01T02:24:40;97885.22;;;-5.32;87.70
76478;BME280;65309;49.790;18.972;2023-03-01T02:29:47;97883.31;;;-5.31;87.38
76478;BME280;65309;49.790;18.972;2023-03-01T02:34:49;97883.66;;;-5.33;87.00
76478;BME280;65309;49.790;18.972;2023-03-01T02:39:57;97882.00;;;-5.37;87.19
76478;BME280;65309;49.790;18.972;2023-03-01T02:45:01;97896.16;;;-5.56;86.63
76478;BME280;65309;49.790;18.972;2023-03-01T02:50:12;97881.69;;;-5.79;87.97
76478;BME280;65309;49.790;18.972;2023-03-01T02:55:16;97886.94;;;-5.86;88.76
76478;BME280;65309;49.790;18.972;2023-03-01T03:00:23;97878.94;;;-5.67;87.54
76478;BME280;65309;49.790;18.972;2023-03-01T03:05:29;97885.47;;;-5.68;87.02
76478;BME280;65309;49.790;18.972;2023-03-01T03:10:34;97876.06;;;-5.74;87.11
76478;BME280;65309;49.790;18.972;2023-03-01T03:15:38;97877.28;;;-5.72;87.48
76478;BME280;65309;49.790;18.972;2023-03-01T03:20:42;97870.50;;;-5.81;87.44
76478;BME280;65309;49.790;18.972;2023-03-01T03:25:44;97862.16;;;-5.92;87.97
76478;BME280;65309;49.790;18.972;2023-03-01T03:30:48;97879.34;;;-5.96;87.87
76478;BME280;65309;49.790;18.972;2023-03-01T03:35:50;97881.38;;;-5.93;88.16
76478;BME280;65309;49.790;18.972;2023-03-01T03:40:59;97889.50;;;-6.06;88.14
76478;BME280;65309;49.790;18.972;2023-03-01T03:46:06;97887.53;;;-5.93;88.25
76478;BME280;65309;49.790;18.972;2023-03-01T03:51:10;97896.72;;;-6.22;88.58
76478;BME280;65309;49.790;18.972;2023-03-01T03:56:12;97886.69;;;-6.09;89.00
76478;BME280;65309;49.790;18.972;2023-03-01T04:01:16;97897.00;;;-5.99;88.31
76478;BME280;65309;49.790;18.972;2023-03-01T04:06:18;97885.00;;;-6.01;88.03
76478;BME280;65309;49.790;18.972;2023-03-01T04:11:20;97884.06;;;-6.21;89.22
76478;BME280;65309;49.790;18.972;2023-03-01T04:16:29;97890.81;;;-5.99;89.10
76478;BME280;65309;49.790;18.972;2023-03-01T04:21:32;97894.19;;;-6.02;88.36
76478;BME280;65309;49.790;18.972;2023-03-01T04:26:34;97882.81;;;-5.96;89.13
76478;BME280;65309;49.790;18.972;2023-03-01T04:31:37;97872.75;;;-5.99;89.23
76478;BME280;65309;49.790;18.972;2023-03-01T04:36:39;97882.38;;;-6.14;88.53
76478;BME280;65309;49.790;18.972;2023-03-01T04:41:41;97886.84;;;-6.18;89.04
76478;BME280;65309;49.790;18.972;2023-03-01T04:46:48;97880.28;;;-6.05;88.78
76478;BME280;65309;49.790;18.972;2023-03-01T04:51:50;97902.38;;;-5.99;88.57
76478;BME280;65309;49.790;18.972;2023-03-01T04:56:52;97915.66;;;-6.06;88.60
76478;BME280;65309;49.790;18.972;2023-03-01T05:01:56;97903.50;;;-6.00;89.16
76478;BME280;65309;49.790;18.972;2023-03-01T05:06:58;97895.06;;;-5.98;88.36
76478;BME280;65309;49.790;18.972;2023-03-01T05:12:00;97885.97;;;-5.78;88.96
76478;BME280;65309;49.790;18.972;2023-03-01T05:17:03;97886.50;;;-5.73;88.36
76478;BME280;65309;49.790;18.972;2023-03-01T05:22:05;97874.31;;;-5.67;88.40
76478;BME280;65309;49.790;18.972;2023-03-01T05:27:08;97878.34;;;-5.61;87.34
76478;BME280;65309;49.790;18.972;2023-03-01T05:32:11;97887.47;;;-5.65;87.70
76478;BME280;65309;49.790;18.972;2023-03-01T05:37:17;97885.63;;;-5.61;87.71
76478;BME280;65309;49.790;18.972;2023-03-01T05:42:20;97875.66;;;-5.45;87.59
76478;BME280;65309;49.790;18.972;2023-03-01T05:47:24;97862.44;;;-5.50;87.98
76478;BME280;65309;49.790;18.972;2023-03-01T05:52:26;97865.75;;;-5.41;87.38
76478;BME280;65309;49.790;18.972;2023-03-01T05:57:28;97863.50;;;-5.39;87.97
76478;BME280;65309;49.790;18.972;2023-03-01T06:02:31;97871.13;;;-5.09;87.91
76478;BME280;65309;49.790;18.972;2023-03-01T06:07:34;97872.53;;;-4.81;85.94
76478;BME280;65309;49.790;18.972;2023-03-01T06:12:38;97874.75;;;-5.02;85.94
76478;BME280;65309;49.790;18.972;2023-03-01T06:17:44;97869.97;;;-4.93;85.83
76478;BME280;65309;49.790;18.972;2023-03-01T06:22:47;97869.88;;;-4.61;85.56
76478;BME280;65309;49.790;18.972;2023-03-01T06:27:49;97866.56;;;-4.36;85.00
76478;BME280;65309;49.790;18.972;2023-03-01T06:32:53;97863.34;;;-4.03;84.84
76478;BME280;65309;49.790;18.972;2023-03-01T06:38:03;97856.31;;;-3.88;84.23
76478;BME280;65309;49.790;18.972;2023-03-01T06:43:06;97858.66;;;-3.64;83.24
76478;BME280;65309;49.790;18.972;2023-03-01T06:48:10;97865.47;;;-3.51;83.13
76478;BME280;65309;49.790;18.972;2023-03-01T06:53:12;97881.19;;;-3.11;81.67
76478;BME280;65309;49.790;18.972;2023-03-01T06:58:14;97883.66;;;-2.76;80.65
76478;BME280;65309;49.790;18.972;2023-03-01T07:03:17;97878.34;;;-2.69;79.56
76478;BME280;65309;49.790;18.972;2023-03-01T07:08:19;97881.25;;;-2.55;78.31
76478;BME280;65309;49.790;18.972;2023-03-01T07:13:21;97894.41;;;-2.53;78.73
76478;BME280;65309;49.790;18.972;2023-03-01T07:18:25;97893.00;;;-2.44;77.81
76478;BME280;65309;49.790;18.972;2023-03-01T07:23:28;97892.09;;;-2.55;79.33
76478;BME280;65309;49.790;18.972;2023-03-01T07:28:30;97885.16;;;-2.52;79.76
76478;BME280;65309;49.790;18.972;2023-03-01T07:33:34;97885.78;;;-2.33;78.77
76478;BME280;65309;49.790;18.972;2023-03-01T07:38:37;97881.34;;;-1.84;77.32
76478;BME280;65309;49.790;18.972;2023-03-01T07:43:39;97867.59;;;-1.65;76.04
76478;BME280;65309;49.790;18.972;2023-03-01T07:48:43;97860.44;;;-1.84;76.99
76478;BME280;65309;49.790;18.972;2023-03-01T07:53:46;97863.19;;;-1.40;75.64
76478;BME280;65309;49.790;18.972;2023-03-01T07:58:49;97860.03;;;-1.02;75.08
76478;BME280;65309;49.790;18.972;2023-03-01T08:03:53;97856.78;;;-0.63;72.20
76478;BME280;65309;49.790;18.972;2023-03-01T08:08:55;97846.44;;;-0.36;72.49
76478;BME280;65309;49.790;18.972;2023-03-01T08:13:57;97836.88;;;-0.09;72.75
76478;BME280;65309;49.790;18.972;2023-03-01T08:19:04;97837.66;;;-0.05;69.40
76478;BME280;65309;49.790;18.972;2023-03-01T08:24:07;97827.22;;;0.18;68.29
76478;BME280;65309;49.790;18.972;2023-03-01T08:29:09;97823.66;;;-0.04;67.62
76478;BME280;65309;49.790;18.972;2023-03-01T08:34:14;97805.91;;;0.41;67.55
76478;BME280;65309;49.790;18.972;2023-03-01T08:39:18;97804.34;;;0.62;68.21
76478;BME280;65309;49.790;18.972;2023-03-01T08:44:21;97809.78;;;0.72;66.25
76478;BME280;65309;49.790;18.972;2023-03-01T08:49:24;97817.56;;;0.88;65.26
76478;BME280;65309;49.790;18.972;2023-03-01T08:54:26;97830.00;;;1.07;64.76
76478;BME280;65309;49.790;18.972;2023-03-01T08:59:28;97838.16;;;1.24;63.28
76478;BME280;65309;49.790;18.972;2023-03-01T09:04:33;97835.03;;;1.33;61.83
76478;BME280;65309;49.790;18.972;2023-03-01T09:09:35;97824.91;;;1.37;61.74
76478;BME280;65309;49.790;18.972;2023-03-01T09:14:37;97826.38;;;1.70;61.21
76478;BME280;65309;49.790;18.972;2023-03-01T09:19:41;97833.72;;;1.76;62.41
76478;BME280;65309;49.790;18.972;2023-03-01T09:24:44;97823.53;;;1.95;60.94
76478;BME280;65309;49.790;18.972;2023-03-01T09:29:45;97818.81;;;2.02;61.77
76478;BME280;65309;49.790;18.972;2023-03-01T09:34:49;97813.13;;;2.45;61.03
76478;BME280;65309;49.790;18.972;2023-03-01T09:40:07;97820.22;;;2.31;58.34
76478;BME280;65309;49.790;18.972;2023-03-01T09:45:25;97815.75;;;2.55;57.81
76478;BME280;65309;49.790;18.972;2023-03-01T09:50:34;97809.97;;;2.50;59.25
76478;BME280;65309;49.790;18.972;2023-03-01T09:55:39;97812.19;;;3.10;56.37
76478;BME280;65309;49.790;18.972;2023-03-01T10:00:48;97815.84;;;2.96;56.01
76478;BME280;65309;49.790;18.972;2023-03-01T10:05:57;97808.25;;;2.70;57.46
76478;BME280;65309;49.790;18.972;2023-03-01T10:11:02;97812.47;;;3.22;57.15
76478;BME280;65309;49.790;18.972;2023-03-01T10:16:10;97815.50;;;2.91;56.96
76478;BME280;65309;49.790;18.972;2023-03-01T10:21:18;97808.25;;;3.14;59.03
76478;BME280;65309;49.790;18.972;2023-03-01T10:26:32;97802.91;;;3.04;58.79
76478;BME280;65309;49.790;18.972;2023-03-01T10:31:41;97812.63;;;3.08;59.98
76478;BME280;65309;49.790;18.972;2023-03-01T10:36:48;97810.31;;;3.03;60.99
76478;BME280;65309;49.790;18.972;2023-03-01T10:41:56;97800.13;;;3.07;59.53
76478;BME280;65309;49.790;18.972;2023-03-01T10:46:59;97800.09;;;3.11;60.46
76478;BME280;65309;49.790;18.972;2023-03-01T10:52:18;97789.91;;;3.15;60.04
76478;BME280;65309;49.790;18.972;2023-03-01T10:57:28;97781.81;;;3.04;59.28
76478;BME280;65309;49.790;18.972;2023-03-01T11:02:31;97780.13;;;2.73;60.07
76478;BME280;65309;49.790;18.972;2023-03-01T11:07:47;97774.47;;;2.94;59.52
76478;BME280;65309;49.790;18.972;2023-03-01T11:12:50;97773.63;;;3.04;59.28
76478;BME280;65309;49.790;18.972;2023-03-01T11:17:53;97778.16;;;3.18;58.90
76478;BME280;65309;49.790;18.972;2023-03-01T11:23:13;97774.16;;;3.30;57.89
76478;BME280;65309;49.790;18.972;2023-03-01T11:28:17;97757.41;;;3.24;58.35
76478;BME280;65309;49.790;18.972;2023-03-01T11:33:27;97751.56;;;3.22;57.12
76478;BME280;65309;49.790;18.972;2023-03-01T11:38:37;97748.63;;;3.40;58.57
76478;BME280;65309;49.790;18.972;2023-03-01T11:43:50;97732.94;;;3.78;57.34
76478;BME280;65309;49.790;18.972;2023-03-01T11:49:02;97725.44;;;3.82;57.37
76478;BME280;65309;49.790;18.972;2023-03-01T11:54:15;97723.03;;;3.87;55.83
76478;BME280;65309;49.790;18.972;2023-03-01T11:59:45;97723.81;;;4.14;54.38
76478;BME280;65309;49.790;18.972;2023-03-01T12:05:14;97733.69;;;4.08;55.79
76478;BME280;65309;49.790;18.972;2023-03-01T12:10:26;97720.81;;;4.05;54.95
76478;BME280;65309;49.790;18.972;2023-03-01T12:15:42;97719.91;;;4.15;55.77
76478;BME280;65309;49.790;18.972;2023-03-01T12:20:56;97712.19;;;4.07;55.29
76478;BME280;65309;49.790;18.972;2023-03-01T12:26:08;97708.22;;;4.11;56.25
76478;BME280;65309;49.790;18.972;2023-03-01T12:31:41;97698.19;;;4.01;55.37
76478;BME280;65309;49.790;18.972;2023-03-01T12:36:57;97696.44;;;4.14;53.98
76478;BME280;65309;49.790;18.972;2023-03-01T12:42:14;97688.13;;;4.22;55.88
76478;BME280;65309;49.790;18.972;2023-03-01T12:47:36;97681.00;;;4.01;55.62
76478;BME280;65309;49.790;18.972;2023-03-01T12:52:44;97680.84;;;4.11;54.91
76478;BME280;65309;49.790;18.972;2023-03-01T12:57:56;97676.94;;;4.12;54.04
76478;BME280;65309;49.790;18.972;2023-03-01T13:03:09;97684.66;;;4.17;56.21
76478;BME280;65309;49.790;18.972;2023-03-01T13:08:18;97675.69;;;4.40;54.05
76478;BME280;65309;49.790;18.972;2023-03-01T13:13:23;97673.19;;;4.26;53.00
76478;BME280;65309;49.790;18.972;2023-03-01T13:18:31;97660.84;;;4.14;55.38
76478;BME280;65309;49.790;18.972;2023-03-01T13:23:36;97660.97;;;4.31;53.11
76478;BME280;65309;49.790;18.972;2023-03-01T13:28:46;97663.38;;;4.29;53.37
76478;BME280;65309;49.790;18.972;2023-03-01T13:33:49;97670.34;;;4.33;52.53
76478;BME280;65309;49.790;18.972;2023-03-01T13:38:56;97670.34;;;4.33;53.05
76478;BME280;65309;49.790;18.972;2023-03-01T13:44:12;97664.50;;;4.31;53.38
76478;BME280;65309;49.790;18.972;2023-03-01T13:49:17;97656.13;;;4.42;52.73
76478;BME280;65309;49.790;18.972;2023-03-01T13:54:26;97647.66;;;4.33;52.08
76478;BME280;65309;49.790;18.972;2023-03-01T13:59:31;97657.13;;;4.28;50.67
76478;BME280;65309;49.790;18.972;2023-03-01T14:04:33;97637.03;;;4.35;48.10
76478;BME280;65309;49.790;18.972;2023-03-01T14:09:41;97641.59;;;4.22;49.34
76478;BME280;65309;49.790;18.972;2023-03-01T14:14:48;97638.59;;;4.12;50.04
76478;BME280;65309;49.790;18.972;2023-03-01T14:19:55;97627.78;;;4.29;50.00
76478;BME280;65309;49.790;18.972;2023-03-01T14:25:00;97629.69;;;4.32;48.26
76478;BME280;65309;49.790;18.972;2023-03-01T14:30:13;97625.50;;;4.47;48.15
76478;BME280;65309;49.790;18.972;2023-03-01T14:35:20;97636.47;;;4.24;46.45
76478;BME280;65309;49.790;18.972;2023-03-01T14:40:25;97635.94;;;4.32;47.99
76478;BME280;65309;49.790;18.972;2023-03-01T14:45:30;97633.25;;;4.29;47.31
76478;BME280;65309;49.790;18.972;2023-03-01T14:50:34;97628.50;;;4.33;45.29
76478;BME280;65309;49.790;18.972;2023-03-01T14:55:37;97627.28;;;4.10;44.60
76478;BME280;65309;49.790;18.972;2023-03-01T15:00:48;97625.97;;;4.18;43.51
76478;BME280;65309;49.790;18.972;2023-03-01T15:05:51;97631.56;;;4.11;43.64
76478;BME280;65309;49.790;18.972;2023-03-01T15:10:59;97623.91;;;4.03;43.94
76478;BME280;65309;49.790;18.972;2023-03-01T15:16:06;97621.81;;;4.10;44.52
76478;BME280;65309;49.790;18.972;2023-03-01T15:21:15;97624.28;;;4.01;44.38
76478;BME280;65309;49.790;18.972;2023-03-01T15:26:23;97625.53;;;3.97;47.25
76478;BME280;65309;49.790;18.972;2023-03-01T15:31:28;97618.81;;;3.78;46.19
76478;BME280;65309;49.790;18.972;2023-03-01T15:36:36;97622.09;;;3.66;45.67
76478;BME280;65309;49.790;18.972;2023-03-01T15:41:47;97620.28;;;3.56;46.85
76478;BME280;65309;49.790;18.972;2023-03-01T15:46:51;97628.72;;;3.42;47.04
76478;BME280;65309;49.790;18.972;2023-03-01T15:51:54;97628.88;;;3.28;45.85
76478;BME280;65309;49.790;18.972;2023-03-01T15:56:56;97613.63;;;3.00;50.28
76478;BME280;65309;49.790;18.972;2023-03-01T16:02:00;97611.84;;;2.49;55.00
76478;BME280;65309;49.790;18.972;2023-03-01T16:07:02;97610.38;;;1.93;56.41
76478;BME280;65309;49.790;18.972;2023-03-01T16:12:05;97615.84;;;1.30;59.44
76478;BME280;65309;49.790;18.972;2023-03-01T16:17:09;97632.41;;;0.91;62.52
76478;BME280;65309;49.790;18.972;2023-03-01T16:22:12;97626.22;;;0.73;64.44
76478;BME280;65309;49.790;18.972;2023-03-01T16:27:14;97621.63;;;0.38;66.99
76478;BME280;65309;49.790;18.972;2023-03-01T16:32:18;97623.97;;;0.26;68.24
76478;BME280;65309;49.790;18.972;2023-03-01T16:37:20;97631.78;;;0.06;69.13
76478;BME280;65309;49.790;18.972;2023-03-01T16:42:23;97620.91;;;-0.22;70.95
76478;BME280;65309;49.790;18.972;2023-03-01T16:47:27;97618.56;;;-0.34;72.18
76478;BME280;65309;49.790;18.972;2023-03-01T16:52:29;97623.19;;;-0.53;72.07
76478;BME280;65309;49.790;18.972;2023-03-01T16:57:33;97615.03;;;-0.63;72.66
76478;BME280;65309;49.790;18.972;2023-03-01T17:02:37;97617.72;;;-0.77;71.51
76478;BME280;65309;49.790;18.972;2023-03-01T17:07:39;97624.66;;;-0.90;73.28
76478;BME280;65309;49.790;18.972;2023-03-01T17:12:41;97628.50;;;-0.95;74.08
76478;BME280;65309;49.790;18.972;2023-03-01T17:17:45;97635.44;;;-1.08;73.19
76478;BME280;65309;49.790;18.972;2023-03-01T17:22:52;97636.97;;;-1.14;73.39
76478;BME280;65309;49.790;18.972;2023-03-01T17:27:54;97647.41;;;-1.23;73.78
76478;BME280;65309;49.790;18.972;2023-03-01T17:32:57;97654.38;;;-1.22;73.43
76478;BME280;65309;49.790;18.972;2023-03-01T17:37:59;97657.81;;;-1.29;73.87
76478;BME280;65309;49.790;18.972;2023-03-01T17:43:01;97660.84;;;-1.45;74.49
76478;BME280;65309;49.790;18.972;2023-03-01T17:48:06;97655.72;;;-1.57;75.60
76478;BME280;65309;49.790;18.972;2023-03-01T17:53:08;97654.94;;;-1.57;75.87
76478;BME280;65309;49.790;18.972;2023-03-01T17:58:12;97644.78;;;-1.71;76.10
76478;BME280;65309;49.790;18.972;2023-03-01T18:03:16;97639.31;;;-1.78;76.57
76478;BME280;65309;49.790;18.972;2023-03-01T18:08:18;97633.91;;;-1.74;76.33
76478;BME280;65309;49.790;18.972;2023-03-01T18:13:20;97636.59;;;-1.78;77.10
76478;BME280;65309;49.790;18.972;2023-03-01T18:18:24;97626.53;;;-1.77;76.24
76478;BME280;65309;49.790;18.972;2023-03-01T18:23:27;97631.63;;;-1.72;77.19
76478;BME280;65309;49.790;18.972;2023-03-01T18:28:30;97619.09;;;-1.91;76.39
76478;BME280;65309;49.790;18.972;2023-03-01T18:33:35;97616.34;;;-1.95;77.33
76478;BME280;65309;49.790;18.972;2023-03-01T18:38:37;97605.44;;;-2.05;77.35
76478;BME280;65309;49.790;18.972;2023-03-01T18:43:39;97606.97;;;-2.08;77.40
76478;BME280;65309;49.790;18.972;2023-03-01T18:48:42;97608.28;;;-2.39;78.78
76478;BME280;65309;49.790;18.972;2023-03-01T18:53:45;97605.97;;;-2.33;79.42
76478;BME280;65309;49.790;18.972;2023-03-01T18:58:47;97605.34;;;-2.16;78.42
76478;BME280;65309;49.790;18.972;2023-03-01T19:03:51;97605.44;;;-2.09;78.70
76478;BME280;65309;49.790;18.972;2023-03-01T19:08:53;97602.75;;;-2.05;77.98
76478;BME280;65309;49.790;18.972;2023-03-01T19:13:56;97601.13;;;-2.13;78.01
76478;BME280;65309;49.790;18.972;2023-03-01T19:19:01;97608.34;;;-2.32;78.30
76478;BME280;65309;49.790;18.972;2023-03-01T19:24:04;97609.38;;;-2.47;79.21
76478;BME280;65309;49.790;18.972;2023-03-01T19:29:06;97615.97;;;-2.44;78.59
76478;BME280;65309;49.790;18.972;2023-03-01T19:34:10;97608.00;;;-2.67;80.09
76478;BME280;65309;49.790;18.972;2023-03-01T19:39:13;97606.50;;;-2.64;79.38
76478;BME280;65309;49.790;18.972;2023-03-01T19:44:15;97605.22;;;-2.74;79.86
76478;BME280;65309;49.790;18.972;2023-03-01T19:49:19;97614.03;;;-2.84;79.90
76478;BME280;65309;49.790;18.972;2023-03-01T19:54:21;97615.59;;;-2.80;80.19
76478;BME280;65309;49.790;18.972;2023-03-01T19:59:23;97614.56;;;-2.71;79.95
76478;BME280;65309;49.790;18.972;2023-03-01T20:04:27;97614.59;;;-2.68;80.00
76478;BME280;65309;49.790;18.972;2023-03-01T20:09:29;97618.22;;;-2.50;78.94
76478;BME280;65309;49.790;18.972;2023-03-01T20:14:31;97610.66;;;-2.70;78.51
76478;BME280;65309;49.790;18.972;2023-03-01T20:19:35;97599.88;;;-2.67;79.63
76478;BME280;65309;49.790;18.972;2023-03-01T20:24:37;97595.63;;;-2.68;78.51
76478;BME280;65309;49.790;18.972;2023-03-01T20:29:39;97592.13;;;-2.72;78.84
76478;BME280;65309;49.790;18.972;2023-03-01T20:34:43;97584.09;;;-2.58;79.16
76478;BME280;65309;49.790;18.972;2023-03-01T20:39:45;97578.00;;;-2.51;79.24
76478;BME280;65309;49.790;18.972;2023-03-01T20:44:47;97573.34;;;-2.51;78.48
76478;BME280;65309;49.790;18.972;2023-03-01T20:49:50;97588.72;;;-2.62;78.57
76478;BME280;65309;49.790;18.972;2023-03-01T20:54:52;97583.50;;;-2.81;79.44
76478;BME280;65309;49.790;18.972;2023-03-01T20:59:55;97593.06;;;-2.91;78.66
76478;BME280;65309;49.790;18.972;2023-03-01T21:04:58;97593.81;;;-2.94;78.43
76478;BME280;65309;49.790;18.972;2023-03-01T21:10:00;97592.94;;;-3.05;78.16
76478;BME280;65309;49.790;18.972;2023-03-01T21:15:03;97601.97;;;-3.23;79.12
76478;BME280;65309;49.790;18.972;2023-03-01T21:20:08;97589.84;;;-3.37;80.45
76478;BME280;65309;49.790;18.972;2023-03-01T21:25:10;97597.38;;;-3.53;80.98
76478;BME280;65309;49.790;18.972;2023-03-01T21:30:13;97613.19;;;-3.55;80.50
76478;BME280;65309;49.790;18.972;2023-03-01T21:35:17;97593.84;;;-3.57;81.02
76478;BME280;65309;49.790;18.972;2023-03-01T21:40:19;97597.91;;;-3.70;81.12
76478;BME280;65309;49.790;18.972;2023-03-01T21:45:21;97605.09;;;-3.81;81.54
76478;BME280;65309;49.790;18.972;2023-03-01T21:50:24;97591.50;;;-3.88;81.98
76478;BME280;65309;49.790;18.972;2023-03-01T21:55:26;97582.50;;;-3.96;82.74
76478;BME280;65309;49.790;18.972;2023-03-01T22:00:28;97583.19;;;-4.02;83.22
76478;BME280;65309;49.790;18.972;2023-03-01T22:05:32;97590.66;;;-4.19;83.60
76478;BME280;65309;49.790;18.972;2023-03-01T22:10:38;97587.38;;;-4.31;84.56
76478;BME280;65309;49.790;18.972;2023-03-01T22:15:43;97597.06;;;-4.53;85.37
76478;BME280;65309;49.790;18.972;2023-03-01T22:20:46;97584.38;;;-4.49;85.41
76478;BME280;65309;49.790;18.972;2023-03-01T22:25:48;97582.13;;;-4.47;85.42
76478;BME280;65309;49.790;18.972;2023-03-01T22:30:50;97582.63;;;-4.38;84.85
76478;BME280;65309;49.790;18.972;2023-03-01T22:35:55;97579.63;;;-4.33;85.29
76478;BME280;65309;49.790;18.972;2023-03-01T22:40:57;97588.81;;;-4.37;85.44
76478;BME280;65309;49.790;18.972;2023-03-01T22:46:08;97586.50;;;-4.61;85.46
76478;BME280;65309;49.790;18.972;2023-03-01T22:51:14;97600.78;;;-4.61;86.11
76478;BME280;65309;49.790;18.972;2023-03-01T22:56:20;97605.69;;;-4.67;81.83
76478;BME280;65309;49.790;18.972;2023-03-01T23:01:24;97605.34;;;-4.65;81.64
76478;BME280;65309;49.790;18.972;2023-03-01T23:06:27;97609.88;;;-4.69;83.57
76478;BME280;65309;49.790;18.972;2023-03-01T23:11:31;97586.78;;;-4.67;82.21
76478;BME280;65309;49.790;18.972;2023-03-01T23:16:33;97588.31;;;-4.69;84.17
76478;BME280;65309;49.790;18.972;2023-03-01T23:21:37;97588.25;;;-4.73;83.84
76478;BME280;65309;49.790;18.972;2023-03-01T23:26:44;97587.81;;;-4.75;84.86
76478;BME280;65309;49.790;18.972;2023-03-01T23:31:53;97590.03;;;-4.80;84.68
76478;BME280;65309;49.790;18.972;2023-03-01T23:36:57;97578.75;;;-4.86;84.21
76478;BME280;65309;49.790;18.972;2023-03-01T23:41:59;97571.47;;;-5.04;84.34
76478;BME280;65309;49.790;18.972;2023-03-01T23:47:01;97571.13;;;-5.03;84.88
76478;BME280;65309;49.790;18.972;2023-03-01T23:52:05;97563.94;;;-4.95;85.70
76478;BME280;65309;49.790;18.972;2023-03-01T23:57:07;97561.97;;;-4.98;85.89
